sensor_id;sensor_type;location;lat;lon;timestamp;P1;durP1;ratioP1;P2;durP2;ratioP2
53875;SDS011;39789;53.216;5.624;2024-03-08T00:02:16;32.13;;;25.75;;
53875;SDS011;39789;53.216;5.624;2024-03-08T00:04:42;32.42;;;24.52;;
53875;SDS011;39789;53.216;5.624;2024-03-08T00:07:10;38.35;;;26.83;;
53875;SDS011;39789;53.216;5.624;2024-03-08T00:09:35;35.90;;;26.88;;
53875;SDS011;39789;53.216;5.624;2024-03-08T00:12:01;34.05;;;26.17;;
53875;SDS011;39789;53.216;5.624;2024-03-08T00:14:27;32.67;;;27.38;;
53875;SDS011;39789;53.216;5.624;2024-03-08T00:16:53;33.63;;;25.67;;
53875;SDS011;39789;53.216;5.624;2024-03-08T00:19:22;32.00;;;26.52;;
53875;SDS011;39789;53.216;5.624;2024-03-08T00:21:48;37.15;;;27.40;;
53875;SDS011;39789;53.216;5.624;2024-03-08T00:24:13;32.90;;;27.92;;
53875;SDS011;39789;53.216;5.624;2024-03-08T00:26:39;32.95;;;26.10;;
53875;SDS011;39789;53.216;5.624;2024-03-08T00:29:05;36.67;;;26.33;;
53875;SDS011;39789;53.216;5.624;2024-03-08T00:31:32;34.47;;;27.25;;
53875;SDS011;39789;53.216;5.624;2024-03-08T00:33:58;35.95;;;27.58;;
53875;SDS011;39789;53.216;5.624;2024-03-08T00:36:24;36.63;;;27.17;;
53875;SDS011;39789;53.216;5.624;2024-03-08T00:38:50;32.67;;;26.00;;
53875;SDS011;39789;53.216;5.624;2024-03-08T00:41:16;39.80;;;27.98;;
53875;SDS011;39789;53.216;5.624;2024-03-08T00:43:45;33.78;;;27.35;;
53875;SDS011;39789;53.216;5.624;2024-03-08T00:46:12;34.00;;;27.35;;
53875;SDS011;39789;53.216;5.624;2024-03-08T00:48:40;33.30;;;27.23;;
53875;SDS011;39789;53.216;5.624;2024-03-08T00:51:08;33.90;;;27.52;;
53875;SDS011;39789;53.216;5.624;2024-03-08T00:53:34;36.88;;;28.02;;
53875;SDS011;39789;53.216;5.624;2024-03-08T00:55:59;36.22;;;27.25;;
53875;SDS011;39789;53.216;5.624;2024-03-08T00:58:25;40.63;;;28.30;;
53875;SDS011;39789;53.216;5.624;2024-03-08T01:00:51;38.60;;;28.10;;
53875;SDS011;39789;53.216;5.624;2024-03-08T01:03:17;35.33;;;30.02;;
53875;SDS011;39789;53.216;5.624;2024-03-08T01:05:43;35.00;;;27.52;;
53875;SDS011;39789;53.216;5.624;2024-03-08T01:08:09;37.40;;;28.58;;
53875;SDS011;39789;53.216;5.624;2024-03-08T01:10:36;36.38;;;29.13;;
53875;SDS011;39789;53.216;5.624;2024-03-08T01:13:02;36.58;;;28.15;;
53875;SDS011;39789;53.216;5.624;2024-03-08T01:15:28;35.25;;;28.10;;
53875;SDS011;39789;53.216;5.624;2024-03-08T01:17:54;40.80;;;29.30;;
53875;SDS011;39789;53.216;5.624;2024-03-08T01:20:19;38.58;;;29.05;;
53875;SDS011;39789;53.216;5.624;2024-03-08T01:22:46;38.05;;;29.05;;
53875;SDS011;39789;53.216;5.624;2024-03-08T01:25:11;38.38;;;30.15;;
53875;SDS011;39789;53.216;5.624;2024-03-08T01:27:37;35.90;;;29.77;;
53875;SDS011;39789;53.216;5.624;2024-03-08T01:30:03;38.80;;;31.25;;
53875;SDS011;39789;53.216;5.624;2024-03-08T01:32:29;38.40;;;30.13;;
53875;SDS011;39789;53.216;5.624;2024-03-08T01:34:55;42.58;;;32.92;;
53875;SDS011;39789;53.216;5.624;2024-03-08T01:37:20;40.20;;;32.17;;
53875;SDS011;39789;53.216;5.624;2024-03-08T01:39:46;40.63;;;31.55;;
53875;SDS011;39789;53.216;5.624;2024-03-08T01:42:12;41.45;;;32.22;;
53875;SDS011;39789;53.216;5.624;2024-03-08T01:44:40;42.67;;;32.88;;
53875;SDS011;39789;53.216;5.624;2024-03-08T01:47:06;41.35;;;33.70;;
53875;SDS011;39789;53.216;5.624;2024-03-08T01:49:32;44.17;;;34.60;;
53875;SDS011;39789;53.216;5.624;2024-03-08T01:51:58;44.78;;;33.75;;
53875;SDS011;39789;53.216;5.624;2024-03-08T01:54:24;42.13;;;32.88;;
53875;SDS011;39789;53.216;5.624;2024-03-08T01:56:51;44.65;;;34.03;;
53875;SDS011;39789;53.216;5.624;2024-03-08T01:59:18;49.97;;;37.22;;
53875;SDS011;39789;53.216;5.624;2024-03-08T02:01:44;45.70;;;35.10;;
53875;SDS011;39789;53.216;5.624;2024-03-08T02:04:10;42.65;;;34.38;;
53875;SDS011;39789;53.216;5.624;2024-03-08T02:06:36;42.63;;;34.63;;
53875;SDS011;39789;53.216;5.624;2024-03-08T02:09:03;49.33;;;37.28;;
53875;SDS011;39789;53.216;5.624;2024-03-08T02:11:31;43.97;;;35.28;;
53875;SDS011;39789;53.216;5.624;2024-03-08T02:13:58;43.92;;;34.80;;
53875;SDS011;39789;53.216;5.624;2024-03-08T02:16:24;47.30;;;36.58;;
53875;SDS011;39789;53.216;5.624;2024-03-08T02:18:49;48.15;;;36.20;;
53875;SDS011;39789;53.216;5.624;2024-03-08T02:21:16;46.10;;;36.70;;
53875;SDS011;39789;53.216;5.624;2024-03-08T02:23:46;47.47;;;37.00;;
53875;SDS011;39789;53.216;5.624;2024-03-08T02:26:12;47.22;;;36.30;;
53875;SDS011;39789;53.216;5.624;2024-03-08T02:28:37;49.15;;;37.13;;
53875;SDS011;39789;53.216;5.624;2024-03-08T02:31:04;50.45;;;38.95;;
53875;SDS011;39789;53.216;5.624;2024-03-08T02:33:33;53.20;;;39.13;;
53875;SDS011;39789;53.216;5.624;2024-03-08T02:35:59;52.90;;;37.92;;
53875;SDS011;39789;53.216;5.624;2024-03-08T02:38:25;51.80;;;38.47;;
53875;SDS011;39789;53.216;5.624;2024-03-08T02:40:52;50.95;;;38.65;;
53875;SDS011;39789;53.216;5.624;2024-03-08T02:43:19;54.42;;;39.38;;
53875;SDS011;39789;53.216;5.624;2024-03-08T02:45:47;54.58;;;40.92;;
53875;SDS011;39789;53.216;5.624;2024-03-08T02:48:13;52.50;;;38.75;;
53875;SDS011;39789;53.216;5.624;2024-03-08T02:50:41;53.40;;;40.80;;
53875;SDS011;39789;53.216;5.624;2024-03-08T02:53:10;54.33;;;40.05;;
53875;SDS011;39789;53.216;5.624;2024-03-08T02:55:40;51.47;;;37.60;;
53875;SDS011;39789;53.216;5.624;2024-03-08T02:58:07;55.42;;;41.85;;
53875;SDS011;39789;53.216;5.624;2024-03-08T03:00:38;58.22;;;42.67;;
53875;SDS011;39789;53.216;5.624;2024-03-08T03:03:05;50.30;;;39.90;;
53875;SDS011;39789;53.216;5.624;2024-03-08T03:05:31;55.78;;;42.35;;
53875;SDS011;39789;53.216;5.624;2024-03-08T03:07:58;54.88;;;41.15;;
53875;SDS011;39789;53.216;5.624;2024-03-08T03:10:24;56.35;;;41.38;;
53875;SDS011;39789;53.216;5.624;2024-03-08T03:12:51;57.05;;;42.67;;
53875;SDS011;39789;53.216;5.624;2024-03-08T03:15:17;55.78;;;41.28;;
53875;SDS011;39789;53.216;5.624;2024-03-08T03:17:49;57.45;;;42.13;;
53875;SDS011;39789;53.216;5.624;2024-03-08T03:20:18;54.22;;;41.92;;
53875;SDS011;39789;53.216;5.624;2024-03-08T03:22:51;60.58;;;43.58;;
53875;SDS011;39789;53.216;5.624;2024-03-08T03:25:18;59.28;;;44.08;;
53875;SDS011;39789;53.216;5.624;2024-03-08T03:27:48;58.50;;;42.85;;
53875;SDS011;39789;53.216;5.624;2024-03-08T03:30:15;59.50;;;42.88;;
53875;SDS011;39789;53.216;5.624;2024-03-08T03:32:50;59.92;;;42.80;;
53875;SDS011;39789;53.216;5.624;2024-03-08T03:35:20;57.67;;;41.45;;
53875;SDS011;39789;53.216;5.624;2024-03-08T03:37:46;63.42;;;42.45;;
53875;SDS011;39789;53.216;5.624;2024-03-08T03:40:35;58.25;;;41.00;;
53875;SDS011;39789;53.216;5.624;2024-03-08T03:43:05;56.90;;;41.50;;
53875;SDS011;39789;53.216;5.624;2024-03-08T03:45:31;56.90;;;40.40;;
53875;SDS011;39789;53.216;5.624;2024-03-08T03:48:01;55.22;;;40.80;;
53875;SDS011;39789;53.216;5.624;2024-03-08T03:50:31;55.15;;;42.22;;
53875;SDS011;39789;53.216;5.624;2024-03-08T03:53:00;53.15;;;40.28;;
53875;SDS011;39789;53.216;5.624;2024-03-08T03:55:27;51.28;;;40.22;;
53875;SDS011;39789;53.216;5.624;2024-03-08T03:57:53;53.28;;;40.63;;
53875;SDS011;39789;53.216;5.624;2024-03-08T04:00:19;56.20;;;39.75;;
53875;SDS011;39789;53.216;5.624;2024-03-08T04:02:45;53.55;;;40.03;;
53875;SDS011;39789;53.216;5.624;2024-03-08T04:05:11;53.80;;;40.15;;
53875;SDS011;39789;53.216;5.624;2024-03-08T04:07:37;50.05;;;39.05;;
53875;SDS011;39789;53.216;5.624;2024-03-08T04:10:04;55.15;;;39.17;;
53875;SDS011;39789;53.216;5.624;2024-03-08T04:12:31;50.30;;;37.63;;
53875;SDS011;39789;53.216;5.624;2024-03-08T04:14:57;53.67;;;39.22;;
53875;SDS011;39789;53.216;5.624;2024-03-08T04:17:23;49.78;;;37.78;;
53875;SDS011;39789;53.216;5.624;2024-03-08T04:19:49;50.80;;;37.63;;
53875;SDS011;39789;53.216;5.624;2024-03-08T04:22:15;49.30;;;35.60;;
53875;SDS011;39789;53.216;5.624;2024-03-08T04:24:43;46.83;;;37.63;;
53875;SDS011;39789;53.216;5.624;2024-03-08T04:27:09;49.13;;;37.72;;
53875;SDS011;39789;53.216;5.624;2024-03-08T04:29:34;49.60;;;36.80;;
53875;SDS011;39789;53.216;5.624;2024-03-08T04:32:02;45.90;;;36.92;;
53875;SDS011;39789;53.216;5.624;2024-03-08T04:34:29;45.40;;;34.40;;
53875;SDS011;39789;53.216;5.624;2024-03-08T04:36:59;45.65;;;34.58;;
53875;SDS011;39789;53.216;5.624;2024-03-08T04:39:25;43.28;;;35.42;;
53875;SDS011;39789;53.216;5.624;2024-03-08T04:41:54;45.17;;;34.33;;
53875;SDS011;39789;53.216;5.624;2024-03-08T04:44:23;44.20;;;34.90;;
53875;SDS011;39789;53.216;5.624;2024-03-08T04:46:49;42.00;;;34.15;;
53875;SDS011;39789;53.216;5.624;2024-03-08T04:49:15;45.67;;;35.25;;
53875;SDS011;39789;53.216;5.624;2024-03-08T04:51:41;46.83;;;34.13;;
53875;SDS011;39789;53.216;5.624;2024-03-08T04:54:07;48.80;;;34.67;;
53875;SDS011;39789;53.216;5.624;2024-03-08T04:56:33;46.00;;;35.08;;
53875;SDS011;39789;53.216;5.624;2024-03-08T04:58:58;43.78;;;34.33;;
53875;SDS011;39789;53.216;5.624;2024-03-08T05:01:24;43.97;;;34.67;;
53875;SDS011;39789;53.216;5.624;2024-03-08T05:03:50;40.72;;;31.92;;
53875;SDS011;39789;53.216;5.624;2024-03-08T05:06:16;41.75;;;33.17;;
53875;SDS011;39789;53.216;5.624;2024-03-08T05:08:42;44.17;;;34.78;;
53875;SDS011;39789;53.216;5.624;2024-03-08T05:11:08;43.47;;;33.65;;
53875;SDS011;39789;53.216;5.624;2024-03-08T05:13:34;42.60;;;34.50;;
53875;SDS011;39789;53.216;5.624;2024-03-08T05:16:00;40.78;;;33.10;;
53875;SDS011;39789;53.216;5.624;2024-03-08T05:18:26;43.28;;;33.28;;
53875;SDS011;39789;53.216;5.624;2024-03-08T05:20:53;42.30;;;32.38;;
53875;SDS011;39789;53.216;5.624;2024-03-08T05:23:19;42.28;;;32.67;;
53875;SDS011;39789;53.216;5.624;2024-03-08T05:25:45;42.97;;;32.58;;
53875;SDS011;39789;53.216;5.624;2024-03-08T05:28:12;40.45;;;33.13;;
53875;SDS011;39789;53.216;5.624;2024-03-08T05:30:38;42.17;;;33.20;;
53875;SDS011;39789;53.216;5.624;2024-03-08T05:33:04;40.00;;;32.35;;
53875;SDS011;39789;53.216;5.624;2024-03-08T05:35:30;41.97;;;32.05;;
53875;SDS011;39789;53.216;5.624;2024-03-08T05:37:55;40.05;;;31.70;;
53875;SDS011;39789;53.216;5.624;2024-03-08T05:40:23;42.38;;;32.75;;
53875;SDS011;39789;53.216;5.624;2024-03-08T05:42:49;38.90;;;32.03;;
53875;SDS011;39789;53.216;5.624;2024-03-08T05:45:15;39.75;;;30.60;;
53875;SDS011;39789;53.216;5.624;2024-03-08T05:47:40;40.25;;;32.22;;
53875;SDS011;39789;53.216;5.624;2024-03-08T05:50:07;41.38;;;33.88;;
53875;SDS011;39789;53.216;5.624;2024-03-08T05:52:35;40.47;;;32.00;;
53875;SDS011;39789;53.216;5.624;2024-03-08T05:55:03;38.53;;;30.98;;
53875;SDS011;39789;53.216;5.624;2024-03-08T05:57:32;43.10;;;33.35;;
53875;SDS011;39789;53.216;5.624;2024-03-08T05:59:57;41.15;;;32.55;;
53875;SDS011;39789;53.216;5.624;2024-03-08T06:02:23;39.40;;;31.80;;
53875;SDS011;39789;53.216;5.624;2024-03-08T06:04:49;43.75;;;33.17;;
53875;SDS011;39789;53.216;5.624;2024-03-08T06:07:14;42.03;;;33.78;;
53875;SDS011;39789;53.216;5.624;2024-03-08T06:09:42;37.92;;;31.70;;
53875;SDS011;39789;53.216;5.624;2024-03-08T06:12:11;41.40;;;33.17;;
53875;SDS011;39789;53.216;5.624;2024-03-08T06:14:37;42.55;;;33.67;;
53875;SDS011;39789;53.216;5.624;2024-03-08T06:17:03;42.10;;;33.00;;
53875;SDS011;39789;53.216;5.624;2024-03-08T06:19:32;42.13;;;33.35;;
53875;SDS011;39789;53.216;5.624;2024-03-08T06:21:58;45.92;;;35.40;;
53875;SDS011;39789;53.216;5.624;2024-03-08T06:24:27;39.40;;;32.53;;
53875;SDS011;39789;53.216;5.624;2024-03-08T06:26:53;40.05;;;32.47;;
53875;SDS011;39789;53.216;5.624;2024-03-08T06:29:19;43.70;;;34.22;;
53875;SDS011;39789;53.216;5.624;2024-03-08T06:31:45;44.28;;;34.00;;
53875;SDS011;39789;53.216;5.624;2024-03-08T06:34:11;38.35;;;31.85;;
53875;SDS011;39789;53.216;5.624;2024-03-08T06:36:36;42.85;;;32.38;;
53875;SDS011;39789;53.216;5.624;2024-03-08T06:39:02;39.97;;;32.75;;
53875;SDS011;39789;53.216;5.624;2024-03-08T06:41:34;41.20;;;31.63;;
53875;SDS011;39789;53.216;5.624;2024-03-08T06:44:02;40.38;;;32.58;;
53875;SDS011;39789;53.216;5.624;2024-03-08T06:46:28;38.42;;;31.02;;
53875;SDS011;39789;53.216;5.624;2024-03-08T06:48:54;41.35;;;32.22;;
53875;SDS011;39789;53.216;5.624;2024-03-08T06:51:20;38.60;;;32.13;;
53875;SDS011;39789;53.216;5.624;2024-03-08T06:53:47;41.42;;;31.52;;
53875;SDS011;39789;53.216;5.624;2024-03-08T06:56:14;37.47;;;30.38;;
53875;SDS011;39789;53.216;5.624;2024-03-08T06:58:40;39.60;;;30.75;;
53875;SDS011;39789;53.216;5.624;2024-03-08T07:01:06;39.97;;;31.10;;
53875;SDS011;39789;53.216;5.624;2024-03-08T07:03:33;39.42;;;31.10;;
53875;SDS011;39789;53.216;5.624;2024-03-08T07:05:59;37.13;;;29.35;;
53875;SDS011;39789;53.216;5.624;2024-03-08T07:08:27;39.88;;;30.73;;
53875;SDS011;39789;53.216;5.624;2024-03-08T07:10:53;37.30;;;29.55;;
53875;SDS011;39789;53.216;5.624;2024-03-08T07:13:19;35.97;;;28.98;;
53875;SDS011;39789;53.216;5.624;2024-03-08T07:15:45;37.03;;;30.25;;
53875;SDS011;39789;53.216;5.624;2024-03-08T07:18:11;38.40;;;29.65;;
53875;SDS011;39789;53.216;5.624;2024-03-08T07:20:40;37.53;;;29.75;;
53875;SDS011;39789;53.216;5.624;2024-03-08T07:23:06;36.47;;;29.30;;
53875;SDS011;39789;53.216;5.624;2024-03-08T07:25:34;37.03;;;28.50;;
53875;SDS011;39789;53.216;5.624;2024-03-08T07:28:00;38.78;;;30.00;;
53875;SDS011;39789;53.216;5.624;2024-03-08T07:30:26;34.63;;;28.95;;
53875;SDS011;39789;53.216;5.624;2024-03-08T07:33:10;39.93;;;29.77;;
53875;SDS011;39789;53.216;5.624;2024-03-08T07:35:39;34.90;;;28.55;;
53875;SDS011;39789;53.216;5.624;2024-03-08T07:38:09;34.63;;;28.15;;
53875;SDS011;39789;53.216;5.624;2024-03-08T07:40:37;36.35;;;28.25;;
53875;SDS011;39789;53.216;5.624;2024-03-08T07:43:06;36.92;;;28.35;;
53875;SDS011;39789;53.216;5.624;2024-03-08T07:45:32;34.35;;;28.92;;
53875;SDS011;39789;53.216;5.624;2024-03-08T07:47:57;36.45;;;28.27;;
53875;SDS011;39789;53.216;5.624;2024-03-08T07:50:23;34.40;;;27.50;;
53875;SDS011;39789;53.216;5.624;2024-03-08T07:52:49;35.33;;;27.75;;
53875;SDS011;39789;53.216;5.624;2024-03-08T07:55:15;34.95;;;28.38;;
53875;SDS011;39789;53.216;5.624;2024-03-08T07:57:40;33.65;;;27.70;;
53875;SDS011;39789;53.216;5.624;2024-03-08T08:00:08;36.85;;;28.15;;
53875;SDS011;39789;53.216;5.624;2024-03-08T08:02:36;37.40;;;28.52;;
53875;SDS011;39789;53.216;5.624;2024-03-08T08:05:04;32.00;;;26.00;;
53875;SDS011;39789;53.216;5.624;2024-03-08T08:07:30;35.47;;;27.55;;
53875;SDS011;39789;53.216;5.624;2024-03-08T08:09:56;34.67;;;27.15;;
53875;SDS011;39789;53.216;5.624;2024-03-08T08:12:22;33.78;;;29.08;;
53875;SDS011;39789;53.216;5.624;2024-03-08T08:14:47;36.20;;;27.02;;
53875;SDS011;39789;53.216;5.624;2024-03-08T08:17:13;36.10;;;27.02;;
53875;SDS011;39789;53.216;5.624;2024-03-08T08:19:40;33.22;;;26.50;;
53875;SDS011;39789;53.216;5.624;2024-03-08T08:22:06;34.72;;;28.65;;
53875;SDS011;39789;53.216;5.624;2024-03-08T08:24:34;30.70;;;25.55;;
53875;SDS011;39789;53.216;5.624;2024-03-08T08:27:02;33.10;;;26.90;;
53875;SDS011;39789;53.216;5.624;2024-03-08T08:29:28;34.00;;;28.35;;
53875;SDS011;39789;53.216;5.624;2024-03-08T08:31:54;32.28;;;26.35;;
53875;SDS011;39789;53.216;5.624;2024-03-08T08:34:19;35.30;;;28.45;;
53875;SDS011;39789;53.216;5.624;2024-03-08T08:36:48;32.40;;;26.52;;
53875;SDS011;39789;53.216;5.624;2024-03-08T08:39:14;34.10;;;26.10;;
53875;SDS011;39789;53.216;5.624;2024-03-08T08:41:42;36.42;;;27.45;;
53875;SDS011;39789;53.216;5.624;2024-03-08T08:44:07;32.22;;;26.50;;
53875;SDS011;39789;53.216;5.624;2024-03-08T08:46:37;31.77;;;26.52;;
53875;SDS011;39789;53.216;5.624;2024-03-08T08:49:03;33.22;;;27.48;;
53875;SDS011;39789;53.216;5.624;2024-03-08T08:51:30;32.33;;;26.70;;
53875;SDS011;39789;53.216;5.624;2024-03-08T08:53:58;32.88;;;25.77;;
53875;SDS011;39789;53.216;5.624;2024-03-08T08:56:24;31.23;;;26.48;;
53875;SDS011;39789;53.216;5.624;2024-03-08T08:58:51;34.17;;;26.58;;
53875;SDS011;39789;53.216;5.624;2024-03-08T09:01:18;31.70;;;26.48;;
53875;SDS011;39789;53.216;5.624;2024-03-08T09:03:44;31.85;;;26.23;;
53875;SDS011;39789;53.216;5.624;2024-03-08T09:06:11;32.63;;;26.55;;
53875;SDS011;39789;53.216;5.624;2024-03-08T09:08:41;33.58;;;25.13;;
53875;SDS011;39789;53.216;5.624;2024-03-08T09:11:09;30.30;;;25.13;;
53875;SDS011;39789;53.216;5.624;2024-03-08T09:13:35;30.48;;;25.02;;
53875;SDS011;39789;53.216;5.624;2024-03-08T09:16:01;32.63;;;27.50;;
53875;SDS011;39789;53.216;5.624;2024-03-08T09:18:28;34.90;;;27.48;;
53875;SDS011;39789;53.216;5.624;2024-03-08T09:20:54;33.13;;;26.08;;
53875;SDS011;39789;53.216;5.624;2024-03-08T09:23:20;30.55;;;24.88;;
53875;SDS011;39789;53.216;5.624;2024-03-08T09:25:45;31.50;;;25.52;;
53875;SDS011;39789;53.216;5.624;2024-03-08T09:28:12;29.17;;;24.58;;
53875;SDS011;39789;53.216;5.624;2024-03-08T09:30:38;30.63;;;24.10;;
53875;SDS011;39789;53.216;5.624;2024-03-08T09:33:04;30.33;;;24.80;;
53875;SDS011;39789;53.216;5.624;2024-03-08T09:35:31;32.88;;;25.25;;
53875;SDS011;39789;53.216;5.624;2024-03-08T09:37:57;30.13;;;24.95;;
53875;SDS011;39789;53.216;5.624;2024-03-08T09:40:22;27.85;;;24.73;;
53875;SDS011;39789;53.216;5.624;2024-03-08T09:42:50;30.48;;;24.92;;
53875;SDS011;39789;53.216;5.624;2024-03-08T09:45:17;31.50;;;25.10;;
53875;SDS011;39789;53.216;5.624;2024-03-08T09:47:47;31.40;;;25.75;;
53875;SDS011;39789;53.216;5.624;2024-03-08T09:50:14;30.42;;;24.25;;
53875;SDS011;39789;53.216;5.624;2024-03-08T09:52:40;30.50;;;24.83;;
53875;SDS011;39789;53.216;5.624;2024-03-08T09:55:06;28.00;;;24.88;;
53875;SDS011;39789;53.216;5.624;2024-03-08T09:57:32;28.90;;;23.98;;
53875;SDS011;39789;53.216;5.624;2024-03-08T09:59:59;30.02;;;24.50;;
53875;SDS011;39789;53.216;5.624;2024-03-08T10:02:25;28.15;;;24.73;;
53875;SDS011;39789;53.216;5.624;2024-03-08T10:04:51;28.10;;;23.88;;
53875;SDS011;39789;53.216;5.624;2024-03-08T10:07:18;31.13;;;24.63;;
53875;SDS011;39789;53.216;5.624;2024-03-08T10:09:44;31.23;;;25.45;;
53875;SDS011;39789;53.216;5.624;2024-03-08T10:12:17;28.38;;;24.30;;
53875;SDS011;39789;53.216;5.624;2024-03-08T10:14:44;26.48;;;23.13;;
53875;SDS011;39789;53.216;5.624;2024-03-08T10:17:11;28.48;;;24.73;;
53875;SDS011;39789;53.216;5.624;2024-03-08T10:19:37;31.08;;;24.38;;
53875;SDS011;39789;53.216;5.624;2024-03-08T10:22:04;26.85;;;23.35;;
53875;SDS011;39789;53.216;5.624;2024-03-08T10:24:30;30.40;;;25.40;;
53875;SDS011;39789;53.216;5.624;2024-03-08T10:26:59;33.38;;;25.67;;
53875;SDS011;39789;53.216;5.624;2024-03-08T10:29:26;31.80;;;25.50;;
53875;SDS011;39789;53.216;5.624;2024-03-08T10:31:53;28.40;;;25.27;;
53875;SDS011;39789;53.216;5.624;2024-03-08T10:34:21;31.17;;;25.30;;
53875;SDS011;39789;53.216;5.624;2024-03-08T10:36:48;28.77;;;25.08;;
53875;SDS011;39789;53.216;5.624;2024-03-08T10:39:23;32.42;;;26.17;;
53875;SDS011;39789;53.216;5.624;2024-03-08T10:41:56;30.73;;;25.00;;
53875;SDS011;39789;53.216;5.624;2024-03-08T10:50:06;30.33;;;25.92;;
53875;SDS011;39789;53.216;5.624;2024-03-08T10:52:29;30.60;;;26.00;;
53875;SDS011;39789;53.216;5.624;2024-03-08T10:54:54;33.03;;;25.70;;
53875;SDS011;39789;53.216;5.624;2024-03-08T10:57:27;31.98;;;26.00;;
53875;SDS011;39789;53.216;5.624;2024-03-08T10:59:53;30.35;;;24.42;;
53875;SDS011;39789;53.216;5.624;2024-03-08T11:02:20;28.83;;;25.27;;
53875;SDS011;39789;53.216;5.624;2024-03-08T11:04:46;32.63;;;26.30;;
53875;SDS011;39789;53.216;5.624;2024-03-08T11:07:14;31.33;;;25.80;;
53875;SDS011;39789;53.216;5.624;2024-03-08T11:09:43;30.10;;;25.00;;
53875;SDS011;39789;53.216;5.624;2024-03-08T11:20:08;31.42;;;26.00;;
53875;SDS011;39789;53.216;5.624;2024-03-08T11:22:40;29.00;;;25.85;;
53875;SDS011;39789;53.216;5.624;2024-03-08T11:25:13;29.60;;;25.50;;
53875;SDS011;39789;53.216;5.624;2024-03-08T11:28:12;31.92;;;26.63;;
53875;SDS011;39789;53.216;5.624;2024-03-08T11:30:45;34.42;;;27.77;;
53875;SDS011;39789;53.216;5.624;2024-03-08T11:33:24;29.75;;;24.95;;
53875;SDS011;39789;53.216;5.624;2024-03-08T11:36:11;29.00;;;25.75;;
53875;SDS011;39789;53.216;5.624;2024-03-08T11:38:41;29.65;;;24.70;;
53875;SDS011;39789;53.216;5.624;2024-03-08T11:41:13;32.53;;;26.98;;
53875;SDS011;39789;53.216;5.624;2024-03-08T11:43:45;31.90;;;26.65;;
53875;SDS011;39789;53.216;5.624;2024-03-08T11:46:11;28.98;;;25.33;;
53875;SDS011;39789;53.216;5.624;2024-03-08T11:48:39;27.83;;;24.80;;
53875;SDS011;39789;53.216;5.624;2024-03-08T11:51:07;29.75;;;25.20;;
53875;SDS011;39789;53.216;5.624;2024-03-08T11:53:33;31.38;;;26.08;;
53875;SDS011;39789;53.216;5.624;2024-03-08T11:56:05;30.52;;;25.17;;
53875;SDS011;39789;53.216;5.624;2024-03-08T11:58:38;28.95;;;25.50;;
53875;SDS011;39789;53.216;5.624;2024-03-08T12:01:05;29.85;;;25.17;;
53875;SDS011;39789;53.216;5.624;2024-03-08T12:03:32;31.58;;;25.45;;
53875;SDS011;39789;53.216;5.624;2024-03-08T12:06:02;28.33;;;24.20;;
53875;SDS011;39789;53.216;5.624;2024-03-08T12:08:32;28.25;;;24.77;;
53875;SDS011;39789;53.216;5.624;2024-03-08T12:10:57;30.17;;;24.67;;
53875;SDS011;39789;53.216;5.624;2024-03-08T12:13:27;29.38;;;24.73;;
53875;SDS011;39789;53.216;5.624;2024-03-08T12:15:57;29.67;;;24.80;;
53875;SDS011;39789;53.216;5.624;2024-03-08T12:18:24;30.55;;;25.63;;
53875;SDS011;39789;53.216;5.624;2024-03-08T12:20:51;28.90;;;24.40;;
53875;SDS011;39789;53.216;5.624;2024-03-08T12:23:17;28.23;;;25.15;;
53875;SDS011;39789;53.216;5.624;2024-03-08T12:25:43;29.13;;;24.60;;
53875;SDS011;39789;53.216;5.624;2024-03-08T12:28:12;30.73;;;24.52;;
53875;SDS011;39789;53.216;5.624;2024-03-08T12:30:51;32.45;;;25.67;;
53875;SDS011;39789;53.216;5.624;2024-03-08T12:33:19;31.80;;;25.98;;
53875;SDS011;39789;53.216;5.624;2024-03-08T12:35:51;30.05;;;25.00;;
53875;SDS011;39789;53.216;5.624;2024-03-08T12:38:23;30.75;;;24.60;;
53875;SDS011;39789;53.216;5.624;2024-03-08T12:40:55;29.70;;;24.42;;
53875;SDS011;39789;53.216;5.624;2024-03-08T12:43:25;29.60;;;25.05;;
53875;SDS011;39789;53.216;5.624;2024-03-08T12:45:51;28.60;;;24.00;;
53875;SDS011;39789;53.216;5.624;2024-03-08T12:48:17;29.17;;;23.95;;
53875;SDS011;39789;53.216;5.624;2024-03-08T12:50:45;28.65;;;23.65;;
53875;SDS011;39789;53.216;5.624;2024-03-08T12:53:13;29.08;;;23.35;;
53875;SDS011;39789;53.216;5.624;2024-03-08T12:55:42;37.88;;;24.50;;
53875;SDS011;39789;53.216;5.624;2024-03-08T12:58:07;27.05;;;22.90;;
53875;SDS011;39789;53.216;5.624;2024-03-08T13:00:34;31.45;;;24.65;;
53875;SDS011;39789;53.216;5.624;2024-03-08T13:03:08;25.50;;;22.35;;
53875;SDS011;39789;53.216;5.624;2024-03-08T13:05:36;26.52;;;22.73;;
53875;SDS011;39789;53.216;5.624;2024-03-08T13:08:05;28.48;;;24.17;;
53875;SDS011;39789;53.216;5.624;2024-03-08T13:10:37;29.88;;;23.65;;
53875;SDS011;39789;53.216;5.624;2024-03-08T13:13:03;30.05;;;24.80;;
53875;SDS011;39789;53.216;5.624;2024-03-08T13:15:30;29.38;;;23.35;;
53875;SDS011;39789;53.216;5.624;2024-03-08T13:17:55;27.17;;;22.55;;
53875;SDS011;39789;53.216;5.624;2024-03-08T13:20:25;27.30;;;24.35;;
53875;SDS011;39789;53.216;5.624;2024-03-08T13:22:53;26.92;;;23.40;;
53875;SDS011;39789;53.216;5.624;2024-03-08T13:25:19;27.35;;;22.27;;
53875;SDS011;39789;53.216;5.624;2024-03-08T13:27:45;29.55;;;24.02;;
53875;SDS011;39789;53.216;5.624;2024-03-08T13:30:11;27.65;;;23.13;;
53875;SDS011;39789;53.216;5.624;2024-03-08T13:32:38;26.83;;;22.92;;
53875;SDS011;39789;53.216;5.624;2024-03-08T13:35:05;26.85;;;22.83;;
53875;SDS011;39789;53.216;5.624;2024-03-08T13:37:38;29.77;;;23.58;;
53875;SDS011;39789;53.216;5.624;2024-03-08T13:40:07;29.02;;;23.70;;
53875;SDS011;39789;53.216;5.624;2024-03-08T13:42:38;27.83;;;24.55;;
53875;SDS011;39789;53.216;5.624;2024-03-08T13:45:08;29.65;;;24.55;;
53875;SDS011;39789;53.216;5.624;2024-03-08T13:47:38;30.10;;;26.27;;
53875;SDS011;39789;53.216;5.624;2024-03-08T13:50:08;28.13;;;24.85;;
53875;SDS011;39789;53.216;5.624;2024-03-08T13:52:37;29.48;;;24.95;;
53875;SDS011;39789;53.216;5.624;2024-03-08T13:55:04;30.98;;;25.75;;
53875;SDS011;39789;53.216;5.624;2024-03-08T13:57:31;30.65;;;26.13;;
53875;SDS011;39789;53.216;5.624;2024-03-08T13:59:57;30.13;;;25.35;;
53875;SDS011;39789;53.216;5.624;2024-03-08T14:02:23;29.42;;;24.27;;
53875;SDS011;39789;53.216;5.624;2024-03-08T14:04:53;29.15;;;22.05;;
53875;SDS011;39789;53.216;5.624;2024-03-08T14:07:20;29.48;;;23.73;;
53875;SDS011;39789;53.216;5.624;2024-03-08T14:09:46;27.83;;;24.35;;
53875;SDS011;39789;53.216;5.624;2024-03-08T14:12:11;28.38;;;22.23;;
53875;SDS011;39789;53.216;5.624;2024-03-08T14:14:38;26.52;;;23.40;;
53875;SDS011;39789;53.216;5.624;2024-03-08T14:17:07;26.60;;;23.33;;
53875;SDS011;39789;53.216;5.624;2024-03-08T14:19:34;25.67;;;22.10;;
53875;SDS011;39789;53.216;5.624;2024-03-08T14:22:00;27.80;;;22.90;;
53875;SDS011;39789;53.216;5.624;2024-03-08T14:24:29;29.50;;;23.48;;
53875;SDS011;39789;53.216;5.624;2024-03-08T14:26:55;27.00;;;23.27;;
53875;SDS011;39789;53.216;5.624;2024-03-08T14:29:24;27.83;;;23.38;;
53875;SDS011;39789;53.216;5.624;2024-03-08T14:31:54;29.42;;;23.85;;
53875;SDS011;39789;53.216;5.624;2024-03-08T14:34:24;27.33;;;22.48;;
53875;SDS011;39789;53.216;5.624;2024-03-08T14:36:52;28.98;;;23.77;;